sensor_id;sensor_type;location;lat;lon;timestamp;P1;durP1;ratioP1;P2;durP2;ratioP2
76194;SDS011;64964;48.694;21.206;2023-07-22T00:00:02;5.17;;;2.80;;
76194;SDS011;64964;48.694;21.206;2023-07-22T00:02:31;4.13;;;3.08;;
76194;SDS011;64964;48.694;21.206;2023-07-22T00:04:56;3.60;;;3.00;;
76194;SDS011;64964;48.694;21.206;2023-07-22T00:07:21;5.90;;;3.20;;
76194;SDS011;64964;48.694;21.206;2023-07-22T00:09:47;4.23;;;2.93;;
76194;SDS011;64964;48.694;21.206;2023-07-22T00:12:15;4.93;;;3.70;;
76194;SDS011;64964;48.694;21.206;2023-07-22T00:14:40;5.87;;;2.90;;
76194;SDS011;64964;48.694;21.206;2023-07-22T00:17:06;6.90;;;3.13;;
76194;SDS011;64964;48.694;21.206;2023-07-22T00:19:31;2.97;;;2.67;;
76194;SDS011;64964;48.694;21.206;2023-07-22T00:21:57;4.45;;;3.10;;
76194;SDS011;64964;48.694;21.206;2023-07-22T00:24:23;6.87;;;3.43;;
76194;SDS011;64964;48.694;21.206;2023-07-22T00:26:48;5.17;;;3.00;;
76194;SDS011;64964;48.694;21.206;2023-07-22T00:29:14;5.32;;;2.92;;
76194;SDS011;64964;48.694;21.206;2023-07-22T00:31:40;4.25;;;3.40;;
76194;SDS011;64964;48.694;21.206;2023-07-22T00:34:06;4.70;;;3.10;;
76194;SDS011;64964;48.694;21.206;2023-07-22T00:36:32;3.77;;;2.77;;
76194;SDS011;64964;48.694;21.206;2023-07-22T00:38:57;5.83;;;3.00;;
76194;SDS011;64964;48.694;21.206;2023-07-22T00:41:22;3.87;;;3.17;;
76194;SDS011;64964;48.694;21.206;2023-07-22T00:43:48;7.17;;;3.40;;
76194;SDS011;64964;48.694;21.206;2023-07-22T00:46:13;3.90;;;3.25;;
76194;SDS011;64964;48.694;21.206;2023-07-22T00:48:38;6.40;;;3.60;;
76194;SDS011;64964;48.694;21.206;2023-07-22T00:51:04;3.83;;;3.35;;
76194;SDS011;64964;48.694;21.206;2023-07-22T00:53:30;6.30;;;4.03;;
76194;SDS011;64964;48.694;21.206;2023-07-22T00:55:55;6.47;;;4.00;;
76194;SDS011;64964;48.694;21.206;2023-07-22T00:58:21;6.63;;;4.57;;
76194;SDS011;64964;48.694;21.206;2023-07-22T01:00:46;7.17;;;5.03;;
76194;SDS011;64964;48.694;21.206;2023-07-22T01:03:13;7.78;;;4.55;;
76194;SDS011;64964;48.694;21.206;2023-07-22T01:05:39;6.97;;;4.17;;
76194;SDS011;64964;48.694;21.206;2023-07-22T01:08:04;7.43;;;4.17;;
76194;SDS011;64964;48.694;21.206;2023-07-22T01:10:31;8.63;;;4.60;;
76194;SDS011;64964;48.694;21.206;2023-07-22T01:12:56;6.90;;;3.88;;
76194;SDS011;64964;48.694;21.206;2023-07-22T01:15:22;5.43;;;3.95;;
76194;SDS011;64964;48.694;21.206;2023-07-22T01:17:49;7.00;;;4.10;;
76194;SDS011;64964;48.694;21.206;2023-07-22T01:20:15;6.75;;;4.55;;
76194;SDS011;64964;48.694;21.206;2023-07-22T01:22:41;6.70;;;4.50;;
76194;SDS011;64964;48.694;21.206;2023-07-22T01:25:08;8.68;;;4.22;;
76194;SDS011;64964;48.694;21.206;2023-07-22T01:27:34;5.77;;;4.47;;
76194;SDS011;64964;48.694;21.206;2023-07-22T01:29:59;5.45;;;4.03;;
76194;SDS011;64964;48.694;21.206;2023-07-22T01:32:27;6.70;;;4.17;;
76194;SDS011;64964;48.694;21.206;2023-07-22T01:34:52;5.60;;;3.60;;
76194;SDS011;64964;48.694;21.206;2023-07-22T01:37:17;8.37;;;4.20;;
76194;SDS011;64964;48.694;21.206;2023-07-22T01:39:44;5.93;;;3.85;;
76194;SDS011;64964;48.694;21.206;2023-07-22T01:42:09;4.03;;;3.30;;
76194;SDS011;64964;48.694;21.206;2023-07-22T01:44:34;4.73;;;3.83;;
76194;SDS011;64964;48.694;21.206;2023-07-22T01:47:03;4.40;;;3.83;;
76194;SDS011;64964;48.694;21.206;2023-07-22T01:49:28;6.28;;;3.60;;
76194;SDS011;64964;48.694;21.206;2023-07-22T01:51:54;5.23;;;3.53;;
76194;SDS011;64964;48.694;21.206;2023-07-22T01:54:19;8.30;;;3.30;;
76194;SDS011;64964;48.694;21.206;2023-07-22T01:56:45;5.23;;;3.40;;
76194;SDS011;64964;48.694;21.206;2023-07-22T01:59:11;6.90;;;3.35;;
76194;SDS011;64964;48.694;21.206;2023-07-22T02:01:36;5.57;;;3.37;;
76194;SDS011;64964;48.694;21.206;2023-07-22T02:04:01;4.97;;;3.63;;
76194;SDS011;64964;48.694;21.206;2023-07-22T02:06:27;4.20;;;3.50;;
76194;SDS011;64964;48.694;21.206;2023-07-22T02:08:53;4.72;;;3.33;;
76194;SDS011;64964;48.694;21.206;2023-07-22T02:11:19;5.05;;;3.25;;
76194;SDS011;64964;48.694;21.206;2023-07-22T02:13:45;4.20;;;3.50;;
76194;SDS011;64964;48.694;21.206;2023-07-22T02:16:10;3.97;;;3.57;;
76194;SDS011;64964;48.694;21.206;2023-07-22T02:18:38;5.63;;;3.10;;
76194;SDS011;64964;48.694;21.206;2023-07-22T02:21:04;3.60;;;3.20;;
76194;SDS011;64964;48.694;21.206;2023-07-22T02:23:29;5.97;;;3.33;;
76194;SDS011;64964;48.694;21.206;2023-07-22T02:25:55;3.37;;;3.07;;
76194;SDS011;64964;48.694;21.206;2023-07-22T02:28:20;4.00;;;3.07;;
76194;SDS011;64964;48.694;21.206;2023-07-22T02:30:50;5.10;;;3.08;;
76194;SDS011;64964;48.694;21.206;2023-07-22T02:33:17;5.07;;;3.30;;
76194;SDS011;64964;48.694;21.206;2023-07-22T02:35:43;5.07;;;3.70;;
76194;SDS011;64964;48.694;21.206;2023-07-22T02:38:09;6.57;;;3.50;;
76194;SDS011;64964;48.694;21.206;2023-07-22T02:40:35;7.38;;;4.25;;
76194;SDS011;64964;48.694;21.206;2023-07-22T02:43:00;5.23;;;3.73;;
76194;SDS011;64964;48.694;21.206;2023-07-22T02:45:26;6.27;;;4.00;;
76194;SDS011;64964;48.694;21.206;2023-07-22T02:47:51;5.20;;;3.80;;
76194;SDS011;64964;48.694;21.206;2023-07-22T02:50:17;5.60;;;4.30;;
76194;SDS011;64964;48.694;21.206;2023-07-22T02:52:43;5.85;;;3.97;;
76194;SDS011;64964;48.694;21.206;2023-07-22T02:57:38;10.52;;;3.80;;
76194;SDS011;64964;48.694;21.206;2023-07-22T03:00:04;5.05;;;3.92;;
76194;SDS011;64964;48.694;21.206;2023-07-22T03:02:36;5.22;;;3.60;;
76194;SDS011;64964;48.694;21.206;2023-07-22T03:05:03;6.90;;;3.78;;
76194;SDS011;64964;48.694;21.206;2023-07-22T03:07:32;6.53;;;3.70;;
76194;SDS011;64964;48.694;21.206;2023-07-22T03:10:02;6.88;;;3.80;;
76194;SDS011;64964;48.694;21.206;2023-07-22T03:12:28;6.60;;;3.72;;
76194;SDS011;64964;48.694;21.206;2023-07-22T03:14:53;4.83;;;3.73;;
76194;SDS011;64964;48.694;21.206;2023-07-22T03:17:19;4.70;;;3.87;;
76194;SDS011;64964;48.694;21.206;2023-07-22T03:19:45;5.70;;;4.20;;
76194;SDS011;64964;48.694;21.206;2023-07-22T03:22:11;6.85;;;4.28;;
76194;SDS011;64964;48.694;21.206;2023-07-22T03:24:39;8.47;;;4.73;;
76194;SDS011;64964;48.694;21.206;2023-07-22T03:27:04;6.68;;;4.30;;
76194;SDS011;64964;48.694;21.206;2023-07-22T03:29:31;6.67;;;4.77;;
76194;SDS011;64964;48.694;21.206;2023-07-22T03:31:57;6.50;;;4.65;;
76194;SDS011;64964;48.694;21.206;2023-07-22T03:34:22;5.27;;;4.60;;
76194;SDS011;64964;48.694;21.206;2023-07-22T03:36:48;9.10;;;4.85;;
76194;SDS011;64964;48.694;21.206;2023-07-22T03:39:14;6.40;;;4.30;;
76194;SDS011;64964;48.694;21.206;2023-07-22T03:41:39;4.82;;;3.92;;
76194;SDS011;64964;48.694;21.206;2023-07-22T03:44:05;10.40;;;4.27;;
76194;SDS011;64964;48.694;21.206;2023-07-22T03:46:30;6.90;;;4.53;;
76194;SDS011;64964;48.694;21.206;2023-07-22T03:48:55;9.37;;;4.77;;
76194;SDS011;64964;48.694;21.206;2023-07-22T03:51:21;6.27;;;4.43;;
76194;SDS011;64964;48.694;21.206;2023-07-22T03:53:46;13.47;;;4.10;;
76194;SDS011;64964;48.694;21.206;2023-07-22T03:56:12;4.33;;;3.80;;
76194;SDS011;64964;48.694;21.206;2023-07-22T03:58:37;6.78;;;4.32;;
76194;SDS011;64964;48.694;21.206;2023-07-22T04:01:02;6.87;;;3.70;;
76194;SDS011;64964;48.694;21.206;2023-07-22T04:03:28;5.73;;;4.30;;
76194;SDS011;64964;48.694;21.206;2023-07-22T04:05:56;5.80;;;4.27;;
76194;SDS011;64964;48.694;21.206;2023-07-22T04:08:22;6.32;;;4.00;;
76194;SDS011;64964;48.694;21.206;2023-07-22T04:10:53;4.83;;;3.77;;
76194;SDS011;64964;48.694;21.206;2023-07-22T04:13:20;5.95;;;3.92;;
76194;SDS011;64964;48.694;21.206;2023-07-22T04:15:47;6.13;;;4.28;;
76194;SDS011;64964;48.694;21.206;2023-07-22T04:18:12;8.35;;;4.55;;
76194;SDS011;64964;48.694;21.206;2023-07-22T04:20:37;8.07;;;4.60;;
76194;SDS011;64964;48.694;21.206;2023-07-22T04:23:03;11.73;;;6.27;;
76194;SDS011;64964;48.694;21.206;2023-07-22T04:25:28;10.83;;;6.90;;
76194;SDS011;64964;48.694;21.206;2023-07-22T04:27:53;14.13;;;6.83;;
76194;SDS011;64964;48.694;21.206;2023-07-22T04:30:19;14.70;;;7.97;;
76194;SDS011;64964;48.694;21.206;2023-07-22T04:32:48;15.13;;;7.53;;
76194;SDS011;64964;48.694;21.206;2023-07-22T04:35:14;13.32;;;5.90;;
76194;SDS011;64964;48.694;21.206;2023-07-22T04:37:42;10.30;;;5.32;;
76194;SDS011;64964;48.694;21.206;2023-07-22T04:40:08;7.95;;;5.13;;
76194;SDS011;64964;48.694;21.206;2023-07-22T04:42:38;6.45;;;4.72;;
76194;SDS011;64964;48.694;21.206;2023-07-22T04:45:04;7.57;;;4.60;;
76194;SDS011;64964;48.694;21.206;2023-07-22T04:47:31;8.52;;;4.70;;
76194;SDS011;64964;48.694;21.206;2023-07-22T04:49:56;7.77;;;4.97;;
76194;SDS011;64964;48.694;21.206;2023-07-22T04:52:22;9.47;;;5.33;;
76194;SDS011;64964;48.694;21.206;2023-07-22T04:54:47;8.03;;;4.90;;
76194;SDS011;64964;48.694;21.206;2023-07-22T04:57:12;10.53;;;5.13;;
76194;SDS011;64964;48.694;21.206;2023-07-22T04:59:38;8.65;;;4.65;;
76194;SDS011;64964;48.694;21.206;2023-07-22T05:02:03;9.17;;;4.73;;
76194;SDS011;64964;48.694;21.206;2023-07-22T05:04:29;11.67;;;5.90;;
76194;SDS011;64964;48.694;21.206;2023-07-22T05:06:54;9.87;;;5.73;;
76194;SDS011;64964;48.694;21.206;2023-07-22T05:09:20;7.87;;;4.90;;
76194;SDS011;64964;48.694;21.206;2023-07-22T05:11:45;6.90;;;4.30;;
76194;SDS011;64964;48.694;21.206;2023-07-22T05:14:11;4.40;;;3.70;;
76194;SDS011;64964;48.694;21.206;2023-07-22T05:16:36;6.30;;;3.77;;
76194;SDS011;64964;48.694;21.206;2023-07-22T05:19:01;6.10;;;3.63;;
76194;SDS011;64964;48.694;21.206;2023-07-22T05:21:27;7.67;;;3.50;;
76194;SDS011;64964;48.694;21.206;2023-07-22T05:23:52;4.17;;;3.47;;
76194;SDS011;64964;48.694;21.206;2023-07-22T05:26:17;6.07;;;3.97;;
76194;SDS011;64964;48.694;21.206;2023-07-22T05:28:43;9.90;;;5.20;;
76194;SDS011;64964;48.694;21.206;2023-07-22T05:31:08;9.27;;;5.10;;
76194;SDS011;64964;48.694;21.206;2023-07-22T05:33:34;10.40;;;4.78;;
76194;SDS011;64964;48.694;21.206;2023-07-22T05:35:59;6.43;;;4.83;;
76194;SDS011;64964;48.694;21.206;2023-07-22T05:38:24;9.20;;;5.40;;
76194;SDS011;64964;48.694;21.206;2023-07-22T05:40:51;4.87;;;3.97;;
76194;SDS011;64964;48.694;21.206;2023-07-22T05:43:17;4.43;;;3.55;;
76194;SDS011;64964;48.694;21.206;2023-07-22T05:45:42;6.30;;;3.80;;
76194;SDS011;64964;48.694;21.206;2023-07-22T05:48:08;6.03;;;4.10;;
76194;SDS011;64964;48.694;21.206;2023-07-22T05:50:33;5.35;;;4.10;;
76194;SDS011;64964;48.694;21.206;2023-07-22T05:52:59;5.30;;;3.70;;
76194;SDS011;64964;48.694;21.206;2023-07-22T05:55:24;7.27;;;4.70;;
76194;SDS011;64964;48.694;21.206;2023-07-22T05:57:50;7.07;;;4.63;;
76194;SDS011;64964;48.694;21.206;2023-07-22T06:00:15;8.13;;;4.57;;
76194;SDS011;64964;48.694;21.206;2023-07-22T06:02:41;7.63;;;5.33;;
76194;SDS011;64964;48.694;21.206;2023-07-22T06:05:06;5.97;;;4.28;;
76194;SDS011;64964;48.694;21.206;2023-07-22T06:07:32;7.13;;;4.28;;
76194;SDS011;64964;48.694;21.206;2023-07-22T06:09:58;7.93;;;4.57;;
76194;SDS011;64964;48.694;21.206;2023-07-22T06:12:23;6.43;;;4.30;;
76194;SDS011;64964;48.694;21.206;2023-07-22T06:14:49;5.43;;;4.30;;
76194;SDS011;64964;48.694;21.206;2023-07-22T06:17:15;7.05;;;4.78;;
76194;SDS011;64964;48.694;21.206;2023-07-22T06:19:40;21.87;;;7.10;;
76194;SDS011;64964;48.694;21.206;2023-07-22T06:22:05;12.23;;;6.95;;
76194;SDS011;64964;48.694;21.206;2023-07-22T06:24:31;10.17;;;6.80;;
76194;SDS011;64964;48.694;21.206;2023-07-22T06:26:56;8.67;;;6.83;;
76194;SDS011;64964;48.694;21.206;2023-07-22T06:29:21;12.33;;;7.77;;
76194;SDS011;64964;48.694;21.206;2023-07-22T06:31:47;25.17;;;13.00;;
76194;SDS011;64964;48.694;21.206;2023-07-22T06:34:12;46.83;;;20.50;;
76194;SDS011;64964;48.694;21.206;2023-07-22T06:36:38;47.03;;;21.87;;
76194;SDS011;64964;48.694;21.206;2023-07-22T06:39:03;42.40;;;20.30;;
76194;SDS011;64964;48.694;21.206;2023-07-22T06:41:29;44.83;;;21.90;;
76194;SDS011;64964;48.694;21.206;2023-07-22T06:43:54;53.63;;;25.50;;
76194;SDS011;64964;48.694;21.206;2023-07-22T06:46:20;57.58;;;26.48;;
76194;SDS011;64964;48.694;21.206;2023-07-22T06:48:46;54.53;;;25.87;;
76194;SDS011;64964;48.694;21.206;2023-07-22T06:51:12;46.67;;;23.40;;
76194;SDS011;64964;48.694;21.206;2023-07-22T06:53:37;36.57;;;20.23;;
76194;SDS011;64964;48.694;21.206;2023-07-22T06:56:03;44.13;;;24.40;;
76194;SDS011;64964;48.694;21.206;2023-07-22T06:58:29;45.37;;;25.13;;
76194;SDS011;64964;48.694;21.206;2023-07-22T07:00:55;45.17;;;24.67;;
76194;SDS011;64964;48.694;21.206;2023-07-22T07:03:20;49.08;;;25.33;;
76194;SDS011;64964;48.694;21.206;2023-07-22T07:05:56;49.25;;;23.70;;
76194;SDS011;64964;48.694;21.206;2023-07-22T07:08:22;44.23;;;22.40;;
76194;SDS011;64964;48.694;21.206;2023-07-22T07:10:48;41.20;;;21.98;;
76194;SDS011;64964;48.694;21.206;2023-07-22T07:13:14;40.55;;;22.33;;
76194;SDS011;64964;48.694;21.206;2023-07-22T07:15:39;36.37;;;19.77;;
76194;SDS011;64964;48.694;21.206;2023-07-22T07:18:05;28.40;;;18.10;;
76194;SDS011;64964;48.694;21.206;2023-07-22T07:20:30;29.15;;;17.35;;
76194;SDS011;64964;48.694;21.206;2023-07-22T07:22:56;25.73;;;15.83;;
76194;SDS011;64964;48.694;21.206;2023-07-22T07:25:21;32.10;;;19.63;;
76194;SDS011;64964;48.694;21.206;2023-07-22T07:27:46;32.37;;;19.17;;
76194;SDS011;64964;48.694;21.206;2023-07-22T07:30:12;33.43;;;20.57;;
76194;SDS011;64964;48.694;21.206;2023-07-22T07:32:37;32.63;;;20.23;;
76194;SDS011;64964;48.694;21.206;2023-07-22T07:35:03;28.57;;;18.97;;
76194;SDS011;64964;48.694;21.206;2023-07-22T07:37:29;26.50;;;17.52;;
76194;SDS011;64964;48.694;21.206;2023-07-22T07:39:55;26.65;;;17.00;;
76194;SDS011;64964;48.694;21.206;2023-07-22T07:42:24;23.33;;;15.98;;
76194;SDS011;64964;48.694;21.206;2023-07-22T07:44:52;23.73;;;16.03;;
76194;SDS011;64964;48.694;21.206;2023-07-22T07:47:18;22.88;;;15.70;;
76194;SDS011;64964;48.694;21.206;2023-07-22T07:49:43;25.10;;;15.93;;
76194;SDS011;64964;48.694;21.206;2023-07-22T07:52:08;21.77;;;15.97;;
76194;SDS011;64964;48.694;21.206;2023-07-22T07:54:34;30.13;;;17.47;;
76194;SDS011;64964;48.694;21.206;2023-07-22T07:57:00;24.52;;;15.73;;
76194;SDS011;64964;48.694;21.206;2023-07-22T07:59:25;23.00;;;17.00;;
76194;SDS011;64964;48.694;21.206;2023-07-22T08:01:51;27.17;;;16.55;;
76194;SDS011;64964;48.694;21.206;2023-07-22T08:04:16;26.30;;;18.27;;
76194;SDS011;64964;48.694;21.206;2023-07-22T08:06:42;25.48;;;16.83;;
76194;SDS011;64964;48.694;21.206;2023-07-22T08:09:08;27.73;;;18.33;;
76194;SDS011;64964;48.694;21.206;2023-07-22T08:11:35;27.90;;;17.15;;
76194;SDS011;64964;48.694;21.206;2023-07-22T08:14:01;23.27;;;15.77;;
76194;SDS011;64964;48.694;21.206;2023-07-22T08:16:27;23.67;;;15.93;;
76194;SDS011;64964;48.694;21.206;2023-07-22T08:18:53;21.58;;;14.13;;
76194;SDS011;64964;48.694;21.206;2023-07-22T08:21:18;20.13;;;13.63;;
76194;SDS011;64964;48.694;21.206;2023-07-22T08:23:45;24.77;;;16.67;;
76194;SDS011;64964;48.694;21.206;2023-07-22T08:26:11;23.80;;;17.00;;
76194;SDS011;64964;48.694;21.206;2023-07-22T08:28:37;25.43;;;16.03;;
76194;SDS011;64964;48.694;21.206;2023-07-22T08:31:03;25.93;;;17.27;;
76194;SDS011;64964;48.694;21.206;2023-07-22T08:33:28;27.95;;;18.00;;
76194;SDS011;64964;48.694;21.206;2023-07-22T08:35:54;32.80;;;19.60;;
76194;SDS011;64964;48.694;21.206;2023-07-22T08:38:20;29.60;;;17.80;;
76194;SDS011;64964;48.694;21.206;2023-07-22T08:40:47;27.77;;;17.38;;
76194;SDS011;64964;48.694;21.206;2023-07-22T08:43:19;27.00;;;18.05;;
76194;SDS011;64964;48.694;21.206;2023-07-22T08:45:45;27.80;;;17.47;;
76194;SDS011;64964;48.694;21.206;2023-07-22T08:48:12;27.42;;;18.55;;
76194;SDS011;64964;48.694;21.206;2023-07-22T08:50:49;30.27;;;18.40;;
76194;SDS011;64964;48.694;21.206;2023-07-22T08:53:18;29.23;;;18.45;;
76194;SDS011;64964;48.694;21.206;2023-07-22T08:55:45;25.17;;;15.95;;
76194;SDS011;64964;48.694;21.206;2023-07-22T08:58:10;27.60;;;17.30;;
76194;SDS011;64964;48.694;21.206;2023-07-22T09:00:37;25.93;;;17.20;;
76194;SDS011;64964;48.694;21.206;2023-07-22T09:03:04;26.13;;;16.95;;
76194;SDS011;64964;48.694;21.206;2023-07-22T09:05:33;25.05;;;15.77;;
76194;SDS011;64964;48.694;21.206;2023-07-22T09:08:03;22.02;;;13.40;;
76194;SDS011;64964;48.694;21.206;2023-07-22T09:10:29;20.48;;;13.93;;
76194;SDS011;64964;48.694;21.206;2023-07-22T09:12:56;25.13;;;15.47;;
76194;SDS011;64964;48.694;21.206;2023-07-22T09:15:22;16.02;;;9.85;;
76194;SDS011;64964;48.694;21.206;2023-07-22T09:17:48;13.82;;;8.85;;
76194;SDS011;64964;48.694;21.206;2023-07-22T09:20:14;17.48;;;11.30;;
76194;SDS011;64964;48.694;21.206;2023-07-22T09:22:46;16.60;;;11.48;;
76194;SDS011;64964;48.694;21.206;2023-07-22T09:25:31;19.90;;;12.33;;
76194;SDS011;64964;48.694;21.206;2023-07-22T09:27:59;19.77;;;11.57;;
76194;SDS011;64964;48.694;21.206;2023-07-22T09:30:32;22.23;;;11.50;;
76194;SDS011;64964;48.694;21.206;2023-07-22T09:33:00;18.77;;;11.50;;
76194;SDS011;64964;48.694;21.206;2023-07-22T09:35:31;19.85;;;12.75;;
76194;SDS011;64964;48.694;21.206;2023-07-22T09:38:09;19.75;;;12.15;;
76194;SDS011;64964;48.694;21.206;2023-07-22T09:40:34;18.53;;;10.90;;
76194;SDS011;64964;48.694;21.206;2023-07-22T09:43:02;21.50;;;13.30;;
76194;SDS011;64964;48.694;21.206;2023-07-22T09:45:30;20.17;;;12.02;;
76194;SDS011;64964;48.694;21.206;2023-07-22T09:47:56;20.80;;;11.50;;
76194;SDS011;64964;48.694;21.206;2023-07-22T09:50:23;15.63;;;10.48;;
76194;SDS011;64964;48.694;21.206;2023-07-22T09:52:56;16.83;;;10.05;;
76194;SDS011;64964;48.694;21.206;2023-07-22T09:55:24;15.80;;;9.37;;
76194;SDS011;64964;48.694;21.206;2023-07-22T09:57:53;15.57;;;8.43;;
76194;SDS011;64964;48.694;21.206;2023-07-22T10:00:20;14.38;;;9.02;;
76194;SDS011;64964;48.694;21.206;2023-07-22T10:02:48;13.20;;;8.50;;
76194;SDS011;64964;48.694;21.206;2023-07-22T10:05:17;13.35;;;8.77;;
76194;SDS011;64964;48.694;21.206;2023-07-22T10:07:45;12.70;;;8.95;;
76194;SDS011;64964;48.694;21.206;2023-07-22T10:10:15;12.70;;;8.23;;
76194;SDS011;64964;48.694;21.206;2023-07-22T10:12:42;9.93;;;6.97;;
76194;SDS011;64964;48.694;21.206;2023-07-22T10:15:09;10.93;;;7.80;;
76194;SDS011;64964;48.694;21.206;2023-07-22T10:17:37;12.77;;;7.60;;
76194;SDS011;64964;48.694;21.206;2023-07-22T10:20:03;8.23;;;6.47;;
76194;SDS011;64964;48.694;21.206;2023-07-22T10:22:36;12.45;;;7.18;;
76194;SDS011;64964;48.694;21.206;2023-07-22T10:25:05;9.93;;;6.13;;
76194;SDS011;64964;48.694;21.206;2023-07-22T10:27:34;9.13;;;5.43;;
76194;SDS011;64964;48.694;21.206;2023-07-22T10:30:00;8.63;;;6.03;;
76194;SDS011;64964;48.694;21.206;2023-07-22T10:32:37;8.05;;;6.00;;
76194;SDS011;64964;48.694;21.206;2023-07-22T10:35:04;8.25;;;5.85;;
76194;SDS011;64964;48.694;21.206;2023-07-22T10:37:35;13.45;;;6.88;;
76194;SDS011;64964;48.694;21.206;2023-07-22T10:40:03;8.63;;;5.87;;
76194;SDS011;64964;48.694;21.206;2023-07-22T10:42:50;10.05;;;6.03;;
76194;SDS011;64964;48.694;21.206;2023-07-22T10:45:26;8.48;;;6.45;;
76194;SDS011;64964;48.694;21.206;2023-07-22T10:48:03;11.00;;;6.32;;
76194;SDS011;64964;48.694;21.206;2023-07-22T10:50:41;9.45;;;5.60;;
76194;SDS011;64964;48.694;21.206;2023-07-22T10:53:12;8.43;;;4.88;;
76194;SDS011;64964;48.694;21.206;2023-07-22T10:56:11;8.77;;;5.60;;
76194;SDS011;64964;48.694;21.206;2023-07-22T11:12:16;10.20;;;6.03;;
76194;SDS011;64964;48.694;21.206;2023-07-22T11:17:10;7.75;;;5.13;;
76194;SDS011;64964;48.694;21.206;2023-07-22T11:19:36;11.73;;;5.70;;
76194;SDS011;64964;48.694;21.206;2023-07-22T11:22:02;8.50;;;4.80;;
76194;SDS011;64964;48.694;21.206;2023-07-22T11:24:28;9.85;;;5.75;;
76194;SDS011;64964;48.694;21.206;2023-07-22T11:26:54;7.67;;;4.53;;
76194;SDS011;64964;48.694;21.206;2023-07-22T11:29:19;5.68;;;4.60;;
76194;SDS011;64964;48.694;21.206;2023-07-22T11:31:46;5.13;;;4.10;;
76194;SDS011;64964;48.694;21.206;2023-07-22T11:34:13;5.80;;;4.10;;
76194;SDS011;64964;48.694;21.206;2023-07-22T11:36:40;4.90;;;3.90;;
76194;SDS011;64964;48.694;21.206;2023-07-22T11:39:07;5.47;;;3.85;;
76194;SDS011;64964;48.694;21.206;2023-07-22T11:41:37;7.43;;;4.47;;
76194;SDS011;64964;48.694;21.206;2023-07-22T11:44:03;8.40;;;4.40;;
76194;SDS011;64964;48.694;21.206;2023-07-22T11:51:49;4.57;;;3.53;;
76194;SDS011;64964;48.694;21.206;2023-07-22T11:54:15;4.10;;;3.20;;
76194;SDS011;64964;48.694;21.206;2023-07-22T11:56:42;7.25;;;3.13;;
76194;SDS011;64964;48.694;21.206;2023-07-22T11:59:08;5.25;;;2.97;;
76194;SDS011;64964;48.694;21.206;2023-07-22T12:01:33;3.13;;;2.87;;
76194;SDS011;64964;48.694;21.206;2023-07-22T12:03:59;4.13;;;2.83;;
76194;SDS011;64964;48.694;21.206;2023-07-22T12:06:25;4.83;;;3.10;;
76194;SDS011;64964;48.694;21.206;2023-07-22T12:08:51;5.20;;;2.88;;
76194;SDS011;64964;48.694;21.206;2023-07-22T12:11:24;3.72;;;2.90;;
76194;SDS011;64964;48.694;21.206;2023-07-22T12:14:09;3.85;;;3.00;;
76194;SDS011;64964;48.694;21.206;2023-07-22T12:16:36;3.47;;;2.73;;
76194;SDS011;64964;48.694;21.206;2023-07-22T12:19:03;6.43;;;2.80;;
76194;SDS011;64964;48.694;21.206;2023-07-22T12:21:29;5.55;;;3.10;;
76194;SDS011;64964;48.694;21.206;2023-07-22T12:23:54;3.20;;;2.60;;
76194;SDS011;64964;48.694;21.206;2023-07-22T12:26:20;5.65;;;2.90;;
76194;SDS011;64964;48.694;21.206;2023-07-22T12:28:45;5.40;;;3.03;;
76194;SDS011;64964;48.694;21.206;2023-07-22T12:31:11;2.93;;;2.63;;
76194;SDS011;64964;48.694;21.206;2023-07-22T12:33:36;3.00;;;2.70;;
76194;SDS011;64964;48.694;21.206;2023-07-22T12:36:02;3.00;;;2.70;;
76194;SDS011;64964;48.694;21.206;2023-07-22T12:38:27;3.97;;;2.65;;
76194;SDS011;64964;48.694;21.206;2023-07-22T12:40:53;3.63;;;2.50;;
76194;SDS011;64964;48.694;21.206;2023-07-22T12:43:18;3.13;;;2.50;;
76194;SDS011;64964;48.694;21.206;2023-07-22T12:45:43;3.27;;;2.70;;
76194;SDS011;64964;48.694;21.206;2023-07-22T12:48:09;3.67;;;2.60;;
76194;SDS011;64964;48.694;21.206;2023-07-22T12:50:34;3.40;;;2.93;;
76194;SDS011;64964;48.694;21.206;2023-07-22T12:53:00;10.07;;;3.97;;
76194;SDS011;64964;48.694;21.206;2023-07-22T12:55:25;8.27;;;3.30;;
76194;SDS011;64964;48.694;21.206;2023-07-22T12:57:51;4.67;;;2.50;;
76194;SDS011;64964;48.694;21.206;2023-07-22T13:00:17;6.85;;;2.83;;
76194;SDS011;64964;48.694;21.206;2023-07-22T13:02:43;5.95;;;3.20;;
76194;SDS011;64964;48.694;21.206;2023-07-22T13:05:09;7.27;;;2.70;;
76194;SDS011;64964;48.694;21.206;2023-07-22T13:07:34;8.90;;;2.80;;
76194;SDS011;64964;48.694;21.206;2023-07-22T13:10:03;8.60;;;3.10;;
76194;SDS011;64964;48.694;21.206;2023-07-22T13:12:33;4.57;;;2.88;;
76194;SDS011;64964;48.694;21.206;2023-07-22T13:14:58;4.67;;;2.63;;
76194;SDS011;64964;48.694;21.206;2023-07-22T13:17:23;6.77;;;2.50;;
76194;SDS011;64964;48.694;21.206;2023-07-22T13:19:49;3.50;;;2.70;;
76194;SDS011;64964;48.694;21.206;2023-07-22T13:22:14;5.60;;;3.00;;
76194;SDS011;64964;48.694;21.206;2023-07-22T13:24:39;5.25;;;3.30;;
76194;SDS011;64964;48.694;21.206;2023-07-22T13:27:06;4.30;;;3.17;;
76194;SDS011;64964;48.694;21.206;2023-07-22T13:29:31;4.93;;;3.40;;
76194;SDS011;64964;48.694;21.206;2023-07-22T13:31:57;4.20;;;3.30;;
76194;SDS011;64964;48.694;21.206;2023-07-22T13:34:22;4.90;;;3.47;;
76194;SDS011;64964;48.694;21.206;2023-07-22T13:36:47;4.20;;;3.20;;
76194;SDS011;64964;48.694;21.206;2023-07-22T13:39:13;6.30;;;3.40;;
76194;SDS011;64964;48.694;21.206;2023-07-22T13:41:38;3.23;;;2.90;;
76194;SDS011;64964;48.694;21.206;2023-07-22T13:44:04;4.77;;;3.00;;
76194;SDS011;64964;48.694;21.206;2023-07-22T13:46:30;3.72;;;3.20;;
76194;SDS011;64964;48.694;21.206;2023-07-22T13:48:55;4.40;;;3.20;;
76194;SDS011;64964;48.694;21.206;2023-07-22T13:51:20;4.37;;;3.50;;
76194;SDS011;64964;48.694;21.206;2023-07-22T13:53:46;5.77;;;3.70;;
76194;SDS011;64964;48.694;21.206;2023-07-22T13:56:11;4.23;;;3.20;;
76194;SDS011;64964;48.694;21.206;2023-07-22T13:58:36;4.63;;;3.07;;
76194;SDS011;64964;48.694;21.206;2023-07-22T14:01:02;4.13;;;2.83;;
76194;SDS011;64964;48.694;21.206;2023-07-22T14:03:27;4.40;;;3.10;;
76194;SDS011;64964;48.694;21.206;2023-07-22T14:05:53;3.83;;;3.20;;
76194;SDS011;64964;48.694;21.206;2023-07-22T14:08:18;3.70;;;3.13;;
76194;SDS011;64964;48.694;21.206;2023-07-22T14:10:43;3.90;;;2.77;;
76194;SDS011;64964;48.694;21.206;2023-07-22T14:13:09;3.15;;;2.80;;
76194;SDS011;64964;48.694;21.206;2023-07-22T14:15:34;3.53;;;2.63;;
76194;SDS011;64964;48.694;21.206;2023-07-22T14:18:01;3.83;;;2.90;;
76194;SDS011;64964;48.694;21.206;2023-07-22T14:20:27;4.20;;;2.80;;
76194;SDS011;64964;48.694;21.206;2023-07-22T14:22:53;5.88;;;3.20;;
76194;SDS011;64964;48.694;21.206;2023-07-22T14:25:18;3.80;;;3.07;;
76194;SDS011;64964;48.694;21.206;2023-07-22T14:27:44;4.20;;;3.17;;
76194;SDS011;64964;48.694;21.206;2023-07-22T14:30:09;4.50;;;2.80;;
76194;SDS011;64964;48.694;21.206;2023-07-22T14:32:35;6.18;;;3.20;;
76194;SDS011;64964;48.694;21.206;2023-07-22T14:35:01;4.30;;;3.20;;
76194;SDS011;64964;48.694;21.206;2023-07-22T14:37:28;3.67;;;2.72;;
76194;SDS011;64964;48.694;21.206;2023-07-22T14:39:53;4.50;;;3.07;;
76194;SDS011;64964;48.694;21.206;2023-07-22T14:42:18;4.13;;;3.23;;
76194;SDS011;64964;48.694;21.206;2023-07-22T14:44:44;3.63;;;3.30;;
76194;SDS011;64964;48.694;21.206;2023-07-22T14:47:10;3.73;;;3.10;;